Time;durP1;ratioP1;P1;durP2;ratioP2;P2;SDS_P1;SDS_P2;PMS_P1;PMS_P2;Temp;Humidity;BMP_temperature;BMP_pressure;BME280_temperature;BME280_humidity;BME280_pressure;Samples;Min_cycle;Max_cycle;Signal;HPM_P1;HPM_P2
2024/03/25 00:00:57;;;;;;;4.10;2.97;;;;;;;7.75;58.75;98671.03;5024213;27;96598;-86
2024/03/25 00:03:22;;;;;;;2.72;2.20;;;;;;;7.84;58.98;98660.13;5023894;27;96943;-86
2024/03/25 00:05:48;;;;;;;6.07;3.03;;;;;;;7.72;59.15;98658.94;5023567;27;100292;-86
2024/03/25 00:08:13;;;;;;;3.75;2.78;;;;;;;7.83;59.13;98663.66;5023644;27;101532;-86
2024/03/25 00:10:39;;;;;;;4.43;3.38;;;;;;;7.78;59.02;98647.38;5023713;27;96797;-86
2024/03/25 00:13:04;;;;;;;6.05;2.85;;;;;;;7.86;58.73;98660.91;5057860;27;96823;-86
2024/03/25 00:15:37;;;;;;;5.30;3.25;;;;;;;7.84;58.35;98658.34;5023558;27;101219;-86
2024/03/25 00:21:49;;;;;;;5.15;2.67;;;;;;;7.78;58.92;98656.03;5072588;27;96528;-88
2024/03/25 00:24:15;;;;;;;8.68;2.63;;;;;;;7.80;58.66;98659.44;5023570;27;96762;-87
2024/03/25 00:26:40;;;;;;;3.70;2.60;;;;;;;7.67;58.76;98653.09;5041651;27;98045;-86
2024/03/25 00:29:06;;;;;;;4.65;2.65;;;;;;;7.72;58.77;98651.13;5043849;27;98075;-86
2024/03/25 00:31:31;;;;;;;4.35;2.70;;;;;;;7.71;58.75;98647.66;5027384;27;96721;-86
2024/03/25 00:33:57;;;;;;;5.05;3.60;;;;;;;7.84;58.48;98650.50;5026957;27;96998;-87
2024/03/25 00:36:22;;;;;;;4.50;3.00;;;;;;;7.80;57.79;98646.38;5061105;27;98650;-86
2024/03/25 00:38:55;;;;;;;4.70;3.03;;;;;;;7.96;58.08;98664.72;5044051;27;101420;-86
2024/03/25 00:45:16;;;;;;;3.65;2.17;;;;;;;7.76;61.82;98673.53;5076138;27;96554;-86
2024/03/25 00:52:05;;;;;;;4.45;2.80;;;;;;;7.83;63.58;98672.34;5075547;27;96901;-86
2024/03/25 00:59:09;;;;;;;4.15;3.08;;;;;;;7.65;64.46;98678.44;5074419;27;96997;-86
2024/03/25 01:06:02;;;;;;;5.00;2.28;;;;;;;7.82;64.49;98665.41;5075240;27;96443;-85
2024/03/25 01:13:03;;;;;;;3.45;2.10;;;;;;;8.01;63.49;98648.84;5075818;27;96578;-85
2024/03/25 01:23:13;;;;;;;2.83;1.83;;;;;;;8.12;64.22;98641.31;5054295;27;96424;-86
2024/03/25 01:30:07;;;;;;;3.28;2.70;;;;;;;8.02;64.35;98643.53;5054441;27;96865;-86
2024/03/25 01:36:21;;;;;;;4.60;2.33;;;;;;;8.13;64.06;98632.53;5054756;27;96443;-86
2024/03/25 01:38:47;;;;;;;6.15;2.95;;;;;;;8.14;64.21;98632.47;5022238;27;96932;-86
2024/03/25 01:41:16;;;;;;;3.80;2.50;;;;;;;8.16;63.90;98622.75;5005676;27;101682;-86
2024/03/25 01:43:41;;;;;;;3.83;2.58;;;;;;;8.16;64.49;98629.75;5006234;27;101578;-86
2024/03/25 01:46:07;;;;;;;3.42;2.28;;;;;;;8.05;64.43;98619.00;5022298;27;96477;-86
2024/03/25 01:52:22;;;;;;;5.13;2.40;;;;;;;7.94;65.26;98627.38;5053665;27;96923;-86
2024/03/25 01:58:51;;;;;;;6.00;2.60;;;;;;;7.80;65.82;98625.47;5034249;28;96712;-86
2024/03/25 02:05:05;;;;;;;3.95;2.40;;;;;;;7.36;67.19;98620.66;5033696;28;96560;-86
2024/03/25 02:11:18;;;;;;;4.82;2.65;;;;;;;7.42;67.82;98622.13;5034033;28;96473;-87
2024/03/25 02:17:36;;;;;;;4.93;2.63;;;;;;;7.01;68.48;98612.72;5033475;28;96965;-85
2024/03/25 02:24:06;;;;;;;4.38;2.60;;;;;;;7.17;68.18;98619.81;5033154;28;96512;-86
2024/03/25 02:30:19;;;;;;;4.10;2.30;;;;;;;7.50;67.59;98614.75;5033252;28;96889;-86
2024/03/25 02:36:36;;;;;;;2.25;1.70;;;;;;;7.71;66.40;98615.47;5033723;28;96598;-86
2024/03/25 02:39:01;;;;;;;2.40;1.80;;;;;;;7.85;66.06;98627.84;4985067;28;96781;-85
2024/03/25 02:41:30;;;;;;;2.30;2.00;;;;;;;7.78;65.96;98622.06;5001309;28;97463;-86
2024/03/25 02:43:55;;;;;;;2.83;2.05;;;;;;;7.84;66.03;98619.16;4985625;28;101298;-85
2024/03/25 02:46:21;;;;;;;3.35;1.77;;;;;;;7.79;65.74;98625.53;4984940;28;96692;-84
2024/03/25 02:48:46;;;;;;;2.38;1.95;;;;;;;7.78;65.75;98613.41;4984352;28;96935;-84
2024/03/25 02:51:12;;;;;;;3.47;2.10;;;;;;;7.72;66.42;98625.84;5000750;28;98473;-85
2024/03/25 02:53:37;;;;;;;2.45;2.17;;;;;;;7.70;66.37;98619.00;5001043;28;101347;-84
2024/03/25 02:56:03;;;;;;;2.55;2.10;;;;;;;7.88;66.15;98617.22;4984847;28;96497;-84
2024/03/25 02:58:29;;;;;;;3.28;1.80;;;;;;;7.93;65.92;98621.31;5014329;27;96849;-87
2024/03/25 03:00:54;;;;;;;2.67;1.80;;;;;;;7.89;65.71;98625.00;5004333;27;101411;-84
2024/03/25 03:03:20;;;;;;;3.15;1.83;;;;;;;7.89;65.72;98616.34;5004056;27;101987;-86
2024/03/25 03:05:45;;;;;;;3.50;1.67;;;;;;;7.84;65.52;98616.53;5004594;27;96508;-85
2024/03/25 03:08:11;;;;;;;2.15;1.60;;;;;;;7.65;66.21;98619.25;5038244;27;96834;-87
2024/03/25 03:10:36;;;;;;;2.58;2.08;;;;;;;7.67;66.16;98625.22;5004214;27;101168;-84
2024/03/25 03:13:02;;;;;;;2.78;1.58;;;;;;;7.68;66.19;98621.69;5004119;27;101407;-87
2024/03/25 03:15:27;;;;;;;3.15;1.65;;;;;;;7.84;66.16;98629.59;5020325;27;96609;-87
2024/03/25 03:17:53;;;;;;;1.67;1.58;;;;;;;7.75;65.81;98632.69;5004335;27;96619;-87
2024/03/25 03:20:20;;;;;;;2.17;1.70;;;;;;;7.58;65.71;98641.34;5020675;27;101388;-86
2024/03/25 03:22:46;;;;;;;1.50;1.40;;;;;;;7.45;66.60;98628.03;5037570;27;98212;-83
2024/03/25 03:25:11;;;;;;;2.78;1.70;;;;;;;7.46;66.87;98623.66;5004383;27;96646;-84
2024/03/25 03:27:37;;;;;;;1.63;1.48;;;;;;;7.55;65.94;98619.75;5020920;27;96821;-85
2024/03/25 03:30:03;;;;;;;3.00;1.63;;;;;;;7.63;65.95;98638.50;5020480;27;101767;-85
2024/03/25 03:32:28;;;;;;;1.77;1.30;;;;;;;7.68;66.31;98641.75;5021071;27;99895;-84
2024/03/25 03:38:42;;;;;;;1.50;1.40;;;;;;;7.91;66.16;98648.44;5052021;27;96559;-85
2024/03/25 03:41:07;;;;;;;2.22;1.80;;;;;;;7.86;66.34;98658.28;5036748;27;98449;-85
2024/03/25 03:43:33;;;;;;;1.70;1.60;;;;;;;7.82;66.22;98659.34;5003474;27;100805;-84
2024/03/25 03:45:59;;;;;;;2.42;1.88;;;;;;;7.74;66.81;98664.97;5020997;27;96532;-85
2024/03/25 03:48:24;;;;;;;2.50;1.75;;;;;;;7.64;67.23;98658.47;5020540;27;96815;-84
2024/03/25 03:50:49;;;;;;;2.13;1.58;;;;;;;7.51;66.55;98660.84;5003499;27;101609;-85
2024/03/25 03:53:15;;;;;;;2.13;1.50;;;;;;;7.48;66.68;98655.78;5020226;27;101407;-85
2024/03/25 03:55:55;;;;;;;2.20;1.30;;;;;;;7.39;66.83;98627.50;5003643;27;96771;-85
2024/03/25 04:02:28;;;;;;;1.70;1.45;;;;;;;7.52;66.51;98657.31;5037897;27;96859;-84
2024/03/25 04:04:54;;;;;;;2.83;1.20;;;;;;;7.56;66.48;98665.81;5019847;28;97703;-84
2024/03/25 04:07:38;;;;;;;2.75;1.70;;;;;;;7.48;66.76;98651.38;5003954;28;96550;-85
2024/03/25 04:21:13;;;;;;;2.15;1.38;;;;;;;7.63;67.01;98651.56;5035597;28;96525;-85
2024/03/25 04:27:35;;;;;;;1.20;1.10;;;;;;;7.82;66.07;98659.34;5035185;28;97061;-85
2024/03/25 04:30:00;;;;;;;2.22;1.70;;;;;;;7.80;66.60;98654.22;5003744;28;101069;-85
2024/03/25 04:32:26;;;;;;;3.17;1.95;;;;;;;7.84;66.28;98652.28;5004059;28;96558;-86
2024/03/25 04:34:51;;;;;;;3.58;1.70;;;;;;;7.92;66.47;98656.22;4987153;28;96734;-86
2024/03/25 04:37:21;;;;;;;3.33;1.70;;;;;;;7.98;66.11;98660.28;4986419;28;101330;-85
2024/03/25 04:43:35;;;;;;;2.60;1.95;;;;;;;7.85;66.60;98646.13;5034817;28;96703;-85
2024/03/25 04:46:01;;;;;;;2.67;2.00;;;;;;;7.96;66.52;98669.97;5003544;28;96649;-85
2024/03/25 04:48:27;;;;;;;5.68;2.63;;;;;;;7.92;66.30;98671.03;5019547;28;98019;-85
2024/03/25 04:50:52;;;;;;;3.70;2.55;;;;;;;7.87;66.06;98668.66;4986183;28;99634;-85
2024/03/25 04:53:18;;;;;;;3.90;2.63;;;;;;;7.90;66.12;98665.88;5002894;28;96789;-85
2024/03/25 04:55:43;;;;;;;5.03;2.80;;;;;;;7.79;66.11;98664.72;5003674;28;96712;-85
2024/03/25 04:58:09;;;;;;;2.95;2.38;;;;;;;7.91;66.36;98680.66;4985954;28;100505;-85
2024/03/25 05:04:40;;;;;;;2.47;2.20;;;;;;;7.71;66.74;98668.56;5039191;27;96789;-86
2024/03/25 05:07:05;;;;;;;3.05;2.45;;;;;;;7.80;66.40;98684.72;5002842;28;96775;-86
2024/03/25 05:09:31;;;;;;;2.88;2.45;;;;;;;7.85;66.66;98685.31;5002088;28;101213;-85
2024/03/25 05:11:56;;;;;;;3.10;2.45;;;;;;;7.79;66.58;98689.06;5001997;27;101359;-85
2024/03/25 05:14:22;;;;;;;3.30;2.75;;;;;;;7.81;66.37;98689.84;4986178;28;96584;-85
2024/03/25 05:16:49;;;;;;;2.95;2.28;;;;;;;7.69;66.37;98661.72;5001691;28;96882;-77
2024/03/25 05:19:14;;;;;;;4.10;3.05;;;;;;;7.86;66.16;98685.25;5002179;28;97917;-76
2024/03/25 05:21:40;;;;;;;2.65;2.45;;;;;;;7.82;66.07;98694.13;4985421;28;101690;-76
2024/03/25 05:24:06;;;;;;;3.40;2.80;;;;;;;7.87;66.30;98693.94;5001715;28;96677;-76
2024/03/25 05:26:31;;;;;;;3.58;2.38;;;;;;;7.85;65.78;98688.78;4985247;28;96944;-76
2024/03/25 05:28:57;;;;;;;3.70;2.38;;;;;;;7.89;65.60;98682.50;4984511;28;101608;-82
2024/03/25 05:31:23;;;;;;;4.15;2.35;;;;;;;7.93;65.23;98685.78;5001839;28;97268;-76
2024/03/25 05:33:50;;;;;;;2.30;2.10;;;;;;;8.17;65.18;98694.16;5018587;28;96876;-76
2024/03/25 05:36:15;;;;;;;4.60;2.22;;;;;;;8.25;65.07;98699.03;4985050;28;96841;-78
2024/03/25 05:38:43;;;;;;;4.18;2.45;;;;;;;8.33;64.51;98709.94;5001658;28;97552;-75
2024/03/25 05:41:09;;;;;;;3.15;2.40;;;;;;;8.36;64.45;98715.88;5001077;28;100540;-76
2024/03/25 05:43:35;;;;;;;2.33;1.90;;;;;;;8.31;65.02;98711.78;5001532;28;96628;-80
2024/03/25 05:46:01;;;;;;;1.85;1.38;;;;;;;8.12;65.66;98731.00;5002014;28;96899;-76
2024/03/25 05:48:28;;;;;;;1.40;1.02;;;;;;;7.87;65.86;98707.00;4984990;28;101326;-77
2024/03/25 05:51:09;;;;;;;1.40;1.08;;;;;;;7.98;66.12;98728.22;5001578;28;97629;-77
2024/03/25 05:53:35;;;;;;;1.60;1.02;;;;;;;7.97;66.48;98731.78;5001942;28;96636;-76
2024/03/25 05:56:01;;;;;;;1.65;1.25;;;;;;;7.94;66.90;98735.38;5001242;28;96905;-76
2024/03/25 05:58:27;;;;;;;2.75;1.00;;;;;;;7.65;66.09;98728.94;5018198;28;97892;-75
2024/03/25 06:00:53;;;;;;;1.60;1.00;;;;;;;7.72;66.58;98745.16;5000817;28;101376;-77
2024/03/25 06:03:19;;;;;;;0.93;0.80;;;;;;;7.66;66.51;98732.38;4989402;27;96929;-88
2024/03/25 06:05:45;;;;;;;1.17;0.90;;;;;;;7.74;66.84;98743.31;5021899;27;96575;-87
2024/03/25 06:08:20;;;;;;;0.98;0.77;;;;;;;7.71;66.98;98743.47;5021082;27;100837;-77
2024/03/25 06:10:46;;;;;;;0.75;0.70;;;;;;;7.71;66.42;98753.91;5005448;27;98052;-82
2024/03/25 06:13:11;;;;;;;1.50;1.10;;;;;;;7.72;66.80;98753.81;5004926;27;96773;-77
2024/03/25 06:15:36;;;;;;;1.63;1.10;;;;;;;7.61;66.85;98763.91;5021353;27;96614;-77
2024/03/25 06:18:02;;;;;;;2.80;1.27;;;;;;;7.62;66.51;98770.00;5020357;27;101503;-78
2024/03/25 06:20:27;;;;;;;1.55;1.30;;;;;;;7.41;66.46;98764.84;5016203;28;101407;-77
2024/03/25 06:22:53;;;;;;;0.73;0.73;;;;;;;7.55;67.09;98792.09;5017160;27;96617;-77
2024/03/25 06:25:18;;;;;;;2.85;1.30;;;;;;;7.32;67.17;98782.69;5002961;27;96757;-77
2024/03/25 06:27:46;;;;;;;1.23;0.77;;;;;;;7.45;67.50;98796.91;5020549;27;101097;-77
2024/03/25 06:35:44;;;;;;;1.17;0.90;;;;;;;7.64;67.11;98808.19;5040915;27;96528;-77
2024/03/25 06:38:10;;;;;;;1.30;1.20;;;;;;;7.54;67.25;98806.09;5002184;27;101146;-77
2024/03/25 06:40:37;;;;;;;1.40;0.93;;;;;;;7.54;67.42;98809.53;5000630;28;101626;-77
2024/03/25 06:43:03;;;;;;;1.20;1.08;;;;;;;7.51;67.48;98816.66;5003579;27;96571;-78
2024/03/25 06:45:29;;;;;;;1.38;1.27;;;;;;;7.47;67.53;98808.94;4999902;28;96973;-78
2024/03/25 06:47:55;;;;;;;2.28;1.00;;;;;;;7.69;67.49;98815.81;4996462;28;100985;-77
2024/03/25 06:50:20;;;;;;;1.42;1.10;;;;;;;7.64;67.34;98828.22;5019947;27;101200;-77
2024/03/25 06:52:46;;;;;;;1.40;1.20;;;;;;;7.92;67.34;98809.53;5020573;27;96539;-77
2024/03/25 06:55:12;;;;;;;2.15;1.35;;;;;;;8.43;66.10;98822.78;5020679;27;96699;-77
2024/03/25 06:57:37;;;;;;;2.30;1.67;;;;;;;8.65;65.67;98825.22;5003346;27;101042;-78
2024/03/25 07:00:06;;;;;;;1.48;1.30;;;;;;;8.61;65.69;98817.53;5001097;27;101512;-78
2024/03/25 07:02:32;;;;;;;3.70;1.38;;;;;;;8.86;65.32;98837.22;5037783;27;96630;-78
2024/03/25 07:04:58;;;;;;;1.65;1.30;;;;;;;8.92;65.57;98836.91;5027291;27;97043;-77
2024/03/25 07:07:23;;;;;;;1.90;1.50;;;;;;;9.37;64.24;98843.31;5002553;27;101125;-78
2024/03/25 07:09:48;;;;;;;1.35;1.25;;;;;;;9.96;62.64;98839.25;5019182;27;100798;-76
2024/03/25 07:12:14;;;;;;;3.30;1.30;;;;;;;10.12;60.84;98818.28;5020108;27;96608;-76
2024/03/25 07:14:40;;;;;;;1.40;1.25;;;;;;;10.09;61.79;98844.66;5002259;27;97026;-76
2024/03/25 07:17:05;;;;;;;1.35;1.25;;;;;;;10.34;61.21;98845.94;5019661;27;101099;-75
2024/03/25 07:19:31;;;;;;;2.30;1.73;;;;;;;10.60;60.60;98841.84;5003153;27;101632;-75
2024/03/25 07:21:56;;;;;;;1.67;1.35;;;;;;;10.29;60.72;98856.69;5037384;27;96928;-76
2024/03/25 07:24:21;;;;;;;2.28;1.63;;;;;;;10.42;60.52;98859.47;5002627;27;96939;-76
2024/03/25 07:26:48;;;;;;;2.00;1.50;;;;;;;10.60;59.92;98852.34;5019326;27;101987;-75
2024/03/25 07:29:13;;;;;;;1.60;1.30;;;;;;;11.07;58.83;98859.22;5002924;27;101130;-75
2024/03/25 07:31:39;;;;;;;2.03;1.70;;;;;;;10.72;59.24;98863.91;5019728;27;96584;-76
2024/03/25 07:34:04;;;;;;;1.40;1.20;;;;;;;10.18;60.37;98862.53;5020187;27;96800;-77
2024/03/25 07:36:33;;;;;;;3.30;1.45;;;;;;;9.89;61.37;98868.50;5018926;27;101209;-75
2024/03/25 07:38:59;;;;;;;1.98;1.33;;;;;;;9.73;61.67;98869.31;5019261;27;101447;-76
2024/03/25 07:41:24;;;;;;;2.50;1.45;;;;;;;9.44;61.97;98872.66;5036789;27;96480;-75
2024/03/25 07:43:50;;;;;;;1.95;1.15;;;;;;;9.49;62.89;98886.34;5002872;27;96892;-75
2024/03/25 07:46:15;;;;;;;1.60;1.20;;;;;;;9.24;62.85;98882.38;5002621;27;100802;-75
2024/03/25 07:48:42;;;;;;;1.77;1.30;;;;;;;9.15;62.93;98890.69;5018433;27;101218;-76
2024/03/25 07:51:07;;;;;;;2.22;1.40;;;;;;;9.26;63.17;98895.41;5020022;27;96686;-77
2024/03/25 07:53:33;;;;;;;1.90;1.45;;;;;;;9.07;63.66;98885.00;5002904;27;96812;-77
2024/03/25 07:55:58;;;;;;;3.20;1.42;;;;;;;9.24;63.44;98897.22;5018892;27;101367;-76
2024/03/25 07:58:24;;;;;;;2.58;1.60;;;;;;;9.37;63.51;98898.31;5002480;27;99729;-76
2024/03/25 08:00:50;;;;;;;2.25;1.55;;;;;;;9.33;63.57;98906.41;5017962;27;96631;-76
2024/03/25 08:03:15;;;;;;;2.08;1.88;;;;;;;9.38;63.44;98905.22;5002068;27;96932;-77
2024/03/25 08:05:41;;;;;;;1.52;1.40;;;;;;;9.17;63.87;98906.34;5002185;27;100887;-75
2024/03/25 08:08:07;;;;;;;4.05;1.50;;;;;;;9.10;64.39;98910.19;5019202;27;101631;-76
2024/03/25 08:10:32;;;;;;;1.70;1.60;;;;;;;8.83;64.15;98916.69;5019760;27;96582;-76
2024/03/25 08:12:58;;;;;;;2.83;1.65;;;;;;;9.09;64.17;98916.34;5019847;27;96823;-75
2024/03/25 08:15:24;;;;;;;1.67;1.40;;;;;;;9.05;64.68;98913.03;5001822;27;101299;-76
2024/03/25 08:17:50;;;;;;;1.48;1.27;;;;;;;8.90;64.74;98924.25;5019023;27;101242;-76
2024/03/25 08:20:15;;;;;;;1.77;1.58;;;;;;;8.93;63.90;98930.22;5018827;27;96541;-76
2024/03/25 08:22:40;;;;;;;2.00;1.23;;;;;;;8.97;64.29;98928.28;5019014;27;96815;-76
2024/03/25 08:25:06;;;;;;;1.55;1.30;;;;;;;9.05;64.36;98920.91;5018514;27;97494;-76
2024/03/25 08:27:32;;;;;;;1.98;1.73;;;;;;;9.28;63.78;98925.81;5018597;27;100881;-76
2024/03/25 08:29:57;;;;;;;1.67;1.58;;;;;;;9.44;63.30;98936.34;5035725;27;96639;-76
2024/03/25 08:32:23;;;;;;;2.30;1.55;;;;;;;9.86;63.01;98936.81;5019496;27;96703;-76
2024/03/25 08:34:48;;;;;;;1.50;1.40;;;;;;;9.66;63.08;98936.09;5035761;27;97689;-76
2024/03/25 08:37:14;;;;;;;2.10;1.48;;;;;;;9.43;63.42;98937.28;5019335;27;97547;-76
2024/03/25 08:39:39;;;;;;;2.10;1.65;;;;;;;9.25;63.92;98944.31;5019339;27;96540;-76
2024/03/25 08:42:05;;;;;;;2.05;1.58;;;;;;;9.38;63.73;98933.19;5019122;27;96898;-76
2024/03/25 08:44:31;;;;;;;3.15;2.05;;;;;;;9.27;63.40;98933.75;5001379;27;100722;-75
2024/03/25 08:46:56;;;;;;;2.15;1.52;;;;;;;9.38;63.53;98941.06;5035701;27;97604;-76
2024/03/25 08:49:22;;;;;;;2.65;1.80;;;;;;;9.18;63.51;98935.03;5022771;27;96599;-76
2024/03/25 08:51:47;;;;;;;2.95;2.22;;;;;;;9.14;64.67;98957.09;5022279;27;96762;-76
2024/03/25 08:54:13;;;;;;;5.25;1.70;;;;;;;9.10;65.30;98958.13;5005201;27;101533;-75
2024/03/25 08:56:39;;;;;;;1.98;1.40;;;;;;;8.70;65.93;98957.50;5022286;27;97358;-76
2024/03/25 08:59:04;;;;;;;5.28;1.73;;;;;;;9.00;65.16;98965.59;5039032;27;96602;-78
2024/03/25 09:01:30;;;;;;;1.80;1.35;;;;;;;9.06;66.46;98973.16;5039202;27;97023;-76
2024/03/25 09:03:56;;;;;;;2.00;1.38;;;;;;;8.87;65.85;98971.50;5021466;27;97572;-76
2024/03/25 09:06:21;;;;;;;1.30;1.10;;;;;;;8.50;65.90;98966.28;5021416;27;101508;-76
2024/03/25 09:11:31;;;;;;;1.42;1.20;;;;;;;9.11;65.08;98972.94;5024487;27;96678;-75
2024/03/25 09:13:56;;;;;;;3.63;1.40;;;;;;;8.83;65.66;98955.97;5038348;27;98026;-76
2024/03/25 09:16:22;;;;;;;1.83;1.58;;;;;;;8.75;65.68;98992.09;5004725;27;101086;-76
2024/03/25 09:18:47;;;;;;;4.38;1.90;;;;;;;8.90;65.87;98987.94;5021939;27;96557;-75
2024/03/25 09:21:14;;;;;;;2.55;2.08;;;;;;;9.05;65.96;99000.25;5038179;27;96887;-78
2024/03/25 09:23:41;;;;;;;1.88;1.58;;;;;;;8.86;66.22;98999.44;5038485;27;97917;-76
2024/03/25 09:26:07;;;;;;;2.88;1.73;;;;;;;8.77;66.86;99010.34;5021742;27;99968;-77
2024/03/25 09:28:32;;;;;;;2.13;1.92;;;;;;;8.74;67.27;98998.25;5039096;27;96619;-79
2024/03/25 09:30:58;;;;;;;3.20;1.92;;;;;;;8.75;66.57;98978.19;5039020;27;96708;-78
2024/03/25 09:33:23;;;;;;;2.67;1.90;;;;;;;9.02;66.55;99008.28;5021421;27;97615;-79
2024/03/25 09:35:49;;;;;;;3.38;2.25;;;;;;;8.94;67.57;99009.56;5021145;27;101206;-78
2024/03/25 09:38:14;;;;;;;4.63;2.33;;;;;;;9.10;67.65;99018.34;5057153;27;96496;-78
2024/03/25 09:40:40;;;;;;;3.83;2.28;;;;;;;9.20;66.59;99009.13;5022117;27;96852;-77
2024/03/25 09:43:12;;;;;;;4.95;2.67;;;;;;;9.47;66.76;99013.94;5038207;27;98570;-76
2024/03/25 09:45:40;;;;;;;3.25;2.85;;;;;;;9.52;66.66;99018.00;5038147;27;98129;-76
2024/03/25 09:48:06;;;;;;;3.80;2.97;;;;;;;9.75;66.05;99022.09;5038297;27;96680;-78
2024/03/25 09:50:31;;;;;;;3.75;2.72;;;;;;;9.89;66.03;99023.13;5021661;27;96869;-78
2024/03/25 09:52:57;;;;;;;4.30;3.10;;;;;;;10.70;64.61;99010.13;5038220;27;97299;-76
2024/03/25 09:55:22;;;;;;;4.32;3.40;;;;;;;11.88;61.07;99030.47;5020797;27;101016;-77
2024/03/25 09:57:48;;;;;;;4.43;3.25;;;;;;;11.07;62.68;99025.50;5020005;27;96669;-76
2024/03/25 10:00:16;;;;;;;4.85;3.22;;;;;;;10.59;63.44;99027.31;5056269;27;96846;-76
2024/03/25 10:02:42;;;;;;;4.13;3.25;;;;;;;10.43;64.50;99036.94;5020636;27;101466;-76
2024/03/25 10:05:08;;;;;;;7.45;3.60;;;;;;;10.28;64.64;99028.09;5003527;27;101274;-79
2024/03/25 10:07:37;;;;;;;4.45;3.28;;;;;;;9.94;65.97;99027.22;5021052;27;96634;-78
2024/03/25 10:10:06;;;;;;;4.50;3.13;;;;;;;9.97;65.77;99039.31;5021391;27;96753;-76
2024/03/25 10:12:32;;;;;;;5.05;3.40;;;;;;;9.93;65.81;99049.13;5003688;27;101522;-76
2024/03/25 10:14:58;;;;;;;4.65;3.15;;;;;;;9.92;66.02;99039.56;5020353;27;101008;-76
2024/03/25 10:17:24;;;;;;;4.30;3.13;;;;;;;9.95;65.87;99041.19;5055960;27;96500;-76
2024/03/25 10:19:49;;;;;;;5.60;3.13;;;;;;;9.81;65.96;99028.78;5020974;27;96762;-76
2024/03/25 10:22:16;;;;;;;5.20;3.15;;;;;;;9.80;66.24;99021.84;5020368;27;97208;-75
2024/03/25 10:24:42;;;;;;;4.72;3.20;;;;;;;9.92;65.90;99054.47;5037375;27;97479;-76
2024/03/25 10:27:23;;;;;;;5.10;3.63;;;;;;;9.89;66.53;99052.84;5020774;27;96576;-76
2024/03/25 10:29:53;;;;;;;3.90;3.42;;;;;;;9.90;66.61;99048.44;5037364;27;96717;-76
2024/03/25 10:32:19;;;;;;;3.30;3.00;;;;;;;9.86;66.09;99058.25;5055248;27;99248;-79
2024/03/25 10:34:44;;;;;;;3.88;3.00;;;;;;;9.30;66.56;99062.75;5002813;27;101046;-76
2024/03/25 10:37:11;;;;;;;3.10;2.67;;;;;;;9.45;65.40;99063.78;5019935;27;96688;-78
2024/03/25 10:39:50;;;;;;;5.60;2.80;;;;;;;9.69;64.66;99053.00;5003586;27;96951;-78
2024/03/25 10:42:19;;;;;;;5.38;3.42;;;;;;;10.03;64.89;99067.00;5019746;27;101165;-75
2024/03/25 10:44:45;;;;;;;4.53;3.13;;;;;;;10.19;64.57;99066.13;5036084;27;97699;-75
2024/03/25 10:47:14;;;;;;;3.78;2.95;;;;;;;10.64;63.15;99062.00;5019113;27;96588;-76
2024/03/25 10:49:57;;;;;;;3.53;3.17;;;;;;;10.80;61.71;99058.56;5036331;27;96838;-80
2024/03/25 10:52:24;;;;;;;3.03;2.50;;;;;;;11.05;61.12;99071.16;5036714;27;97983;-77
2024/03/25 10:54:50;;;;;;;3.13;2.65;;;;;;;10.77;62.15;99072.69;5002531;27;101495;-77
2024/03/25 10:57:18;;;;;;;3.05;2.30;;;;;;;10.32;62.93;99042.75;5020138;27;96665;-78
2024/03/25 10:59:45;;;;;;;2.97;2.65;;;;;;;10.38;63.25;99075.66;5019795;27;96896;-78
2024/03/25 11:02:11;;;;;;;3.97;2.78;;;;;;;10.60;62.77;99070.13;5036318;27;98175;-76
2024/03/25 11:04:37;;;;;;;2.55;2.15;;;;;;;11.18;60.36;99073.97;5015604;28;100760;-76
2024/03/25 11:07:13;;;;;;;3.15;2.03;;;;;;;11.31;60.43;99078.44;5016384;28;96739;-75
2024/03/25 11:09:40;;;;;;;3.58;2.03;;;;;;;11.06;59.83;99070.25;4999682;28;96906;-75
2024/03/25 11:12:06;;;;;;;3.50;2.08;;;;;;;10.55;61.71;99082.66;4998032;28;101618;-77
2024/03/25 11:14:35;;;;;;;2.63;2.20;;;;;;;11.13;61.00;99083.88;5032321;28;98872;-75
2024/03/25 11:17:01;;;;;;;3.10;2.35;;;;;;;11.08;60.61;99087.63;5033801;28;96563;-77
2024/03/25 11:19:28;;;;;;;2.53;2.10;;;;;;;11.16;60.63;99088.94;5015117;28;96828;-76
2024/03/25 11:21:54;;;;;;;3.00;2.38;;;;;;;11.22;59.60;99089.44;5032664;28;97384;-76
2024/03/25 11:24:38;;;;;;;2.75;2.30;;;;;;;11.76;59.12;99087.25;4998518;28;101282;-81
2024/03/25 11:27:07;;;;;;;2.65;1.88;;;;;;;11.96;59.24;99082.63;5016023;28;96608;-77
2024/03/25 11:29:33;;;;;;;6.78;2.20;;;;;;;12.06;57.93;99070.59;5034179;28;96748;-82
2024/03/25 11:32:06;;;;;;;2.88;2.35;;;;;;;11.80;58.44;99080.00;5032365;28;98532;-81
2024/03/25 11:34:32;;;;;;;2.95;2.20;;;;;;;12.10;58.61;99087.91;5015018;28;101403;-79
2024/03/25 11:36:57;;;;;;;3.33;2.58;;;;;;;11.62;58.98;99079.31;5015338;28;96739;-77
2024/03/25 11:39:23;;;;;;;3.75;2.58;;;;;;;11.48;59.23;99080.09;4998756;28;96884;-77
2024/03/25 11:41:49;;;;;;;9.02;5.22;;;;;;;11.02;59.03;99081.84;4982196;28;100751;-82
2024/03/25 11:44:17;;;;;;;3.92;3.42;;;;;;;10.93;59.56;99083.19;5014819;28;101344;-77
2024/03/25 11:46:42;;;;;;;4.50;2.78;;;;;;;10.58;60.69;99093.81;4998947;28;96783;-83
2024/03/25 11:49:13;;;;;;;3.22;2.92;;;;;;;10.42;60.40;99079.84;5015232;28;96953;-84
2024/03/25 11:51:41;;;;;;;5.13;2.72;;;;;;;10.31;61.00;99083.03;4998186;28;101833;-83
2024/03/25 11:54:09;;;;;;;5.35;2.83;;;;;;;10.09;62.27;99058.81;5015738;28;98195;-84
2024/03/25 11:56:34;;;;;;;3.33;2.85;;;;;;;10.45;61.34;99094.59;5015675;28;96725;-85
2024/03/25 11:59:00;;;;;;;3.92;3.08;;;;;;;10.98;60.74;99096.91;4998414;28;96869;-84
2024/03/25 12:01:26;;;;;;;4.50;2.97;;;;;;;10.65;61.08;99081.25;5013842;28;100884;-85
2024/03/25 12:03:51;;;;;;;4.15;3.20;;;;;;;10.32;61.05;99089.94;4997219;28;100016;-84
2024/03/25 12:06:17;;;;;;;3.78;3.33;;;;;;;10.10;62.28;99094.59;5015186;28;96734;-84
2024/03/25 12:11:17;;;;;;;5.93;4.18;;;;;;;10.46;61.47;99097.09;4998569;28;96789;-83
2024/03/25 12:11:31;;;;;;;7.28;4.40;;;;;;;10.48;61.66;99090.00;5012788;28;101720;-85
2024/03/25 12:13:57;;;;;;;5.78;4.05;;;;;;;10.67;61.03;99094.25;4981474;28;101172;-85
2024/03/25 12:16:23;;;;;;;6.20;4.47;;;;;;;10.84;61.44;99091.56;4997498;28;96648;-84
2024/03/25 12:18:49;;;;;;;7.88;4.00;;;;;;;11.44;60.36;99086.47;4998944;28;96814;-84
2024/03/25 12:21:22;;;;;;;5.78;3.45;;;;;;;11.93;60.81;99067.03;5014924;27;98015;-84
2024/03/25 12:23:48;;;;;;;5.15;3.55;;;;;;;12.12;57.83;99064.97;5016673;28;101729;-84
2024/03/25 12:26:13;;;;;;;4.90;3.05;;;;;;;12.12;57.27;99070.22;5018294;28;96607;-85
2024/03/25 12:28:39;;;;;;;9.05;3.30;;;;;;;12.03;57.11;99085.72;5001770;28;96796;-83
2024/03/25 12:31:08;;;;;;;4.18;3.00;;;;;;;12.16;56.96;99092.81;5034808;28;101293;-79
2024/03/25 12:33:46;;;;;;;5.50;3.13;;;;;;;12.13;56.60;99081.59;5017788;28;100936;-82
2024/03/25 12:36:12;;;;;;;4.05;3.17;;;;;;;12.12;56.22;99091.28;4985147;28;96748;-85
2024/03/25 12:38:38;;;;;;;6.68;4.15;;;;;;;11.66;57.13;99091.31;5017606;28;96905;-83
2024/03/25 12:41:05;;;;;;;4.72;3.60;;;;;;;11.47;57.56;99090.72;5001696;28;97528;-79
2024/03/25 12:43:35;;;;;;;3.83;3.38;;;;;;;11.41;57.41;99096.31;5018072;28;101363;-79
2024/03/25 12:46:03;;;;;;;3.70;3.22;;;;;;;11.40;57.75;99110.38;5018419;28;96536;-81
2024/03/25 12:48:29;;;;;;;4.22;3.30;;;;;;;11.09;58.13;99104.22;5034403;28;96870;-79
2024/03/25 12:50:54;;;;;;;5.25;3.08;;;;;;;10.60;58.86;99115.59;5034108;28;97944;-84
2024/03/25 12:53:20;;;;;;;3.50;2.40;;;;;;;10.64;58.68;99097.91;5017954;28;100804;-83
2024/03/25 12:55:46;;;;;;;1.70;1.60;;;;;;;10.97;58.07;99107.53;5017905;28;96574;-79
2024/03/25 12:58:12;;;;;;;1.85;1.45;;;;;;;10.86;57.67;99114.19;5018056;28;96878;-82
2024/03/25 13:00:38;;;;;;;2.95;1.70;;;;;;;11.42;57.07;99116.38;5034900;28;97593;-82
2024/03/25 13:03:07;;;;;;;2.92;2.20;;;;;;;11.40;57.59;99113.00;5020761;27;97485;-80
2024/03/25 13:05:33;;;;;;;3.55;1.70;;;;;;;11.61;57.56;99100.44;5020959;27;96589;-81
2024/03/25 13:07:59;;;;;;;4.60;2.15;;;;;;;11.33;58.67;99104.63;5021470;27;96799;-79
2024/03/25 13:10:25;;;;;;;3.45;2.80;;;;;;;11.30;59.09;99100.38;5038216;27;97974;-82
2024/03/25 13:12:50;;;;;;;3.63;3.03;;;;;;;10.96;59.21;99090.06;5020890;27;100710;-79
2024/03/25 13:15:16;;;;;;;2.95;2.53;;;;;;;11.38;59.32;99101.75;5020179;27;96775;-84
2024/03/25 13:17:41;;;;;;;3.30;2.90;;;;;;;11.33;58.57;99094.94;5004425;27;96797;-82
2024/03/25 13:20:07;;;;;;;4.38;2.45;;;;;;;11.28;nan;99093.50;5020481;27;101310;-79
2024/03/25 13:22:33;;;;;;;4.85;2.90;;;;;;;11.26;60.25;99084.91;5020985;27;97821;-85
2024/03/25 13:24:59;;;;;;;7.25;3.00;;;;;;;11.28;59.21;99102.25;5037589;27;96659;-79